createdAt,value
2022-09-14T00:01:26.870Z,65.33
2022-09-14T00:03:56.813Z,65.39
2022-09-14T00:06:26.368Z,65.18
2022-09-14T00:08:55.543Z,65.18
2022-09-14T00:11:25.093Z,65.60
2022-09-14T00:13:54.039Z,65.62
2022-09-14T00:16:24.159Z,65.95
2022-09-14T00:18:53.347Z,65.77
2022-09-14T00:21:21.441Z,65.60
2022-09-14T00:23:50.866Z,65.67
2022-09-14T00:26:23.829Z,65.51
2022-09-14T00:28:53.386Z,65.74
2022-09-14T00:31:22.421Z,66.02
2022-09-14T00:33:51.611Z,65.84
2022-09-14T00:36:22.001Z,65.60
2022-09-14T00:38:51.581Z,65.79
2022-09-14T00:41:28.974Z,66.09
2022-09-14T00:43:59.429Z,66.18
2022-09-14T00:46:29.339Z,66.54
2022-09-14T00:49:00.936Z,66.39
2022-09-14T00:51:30.985Z,66.95
2022-09-14T00:54:02.696Z,67.16
2022-09-14T00:56:30.898Z,66.21
2022-09-14T00:59:00.706Z,66.63
2022-09-14T01:01:28.616Z,66.68
2022-09-14T01:03:56.279Z,66.43
2022-09-14T01:06:35.957Z,66.13
2022-09-14T01:09:19.089Z,65.84
2022-09-14T01:12:06.798Z,65.97
2022-09-14T01:14:43.634Z,65.35
2022-09-14T01:17:17.602Z,65.31
2022-09-14T01:20:10.949Z,64.96
2022-09-14T01:22:47.667Z,65.33
2022-09-14T01:25:38.838Z,65.83
2022-09-14T01:28:13.558Z,65.48
2022-09-14T01:30:43.712Z,65.18
2022-09-14T01:33:18.923Z,65.56
2022-09-14T01:35:53.329Z,65.24
2022-09-14T01:38:24.428Z,64.93
2022-09-14T01:40:52.473Z,64.85
2022-09-14T01:43:26.226Z,64.34
2022-09-14T01:45:57.077Z,64.28
2022-09-14T01:48:32.731Z,63.76
2022-09-14T01:51:04.339Z,63.95
2022-09-14T01:53:37.699Z,64.03
2022-09-14T01:56:11.974Z,64.33
2022-09-14T01:58:45.908Z,63.94
2022-09-14T02:01:19.177Z,63.34
2022-09-14T02:03:50.933Z,63.41
2022-09-14T02:06:24.893Z,63.14
2022-09-14T02:08:53.248Z,63.54
2022-09-14T02:11:21.087Z,63.17
2022-09-14T02:13:50.160Z,63.15
2022-09-14T02:16:18.019Z,63.06
2022-09-14T02:18:45.873Z,62.65
2022-09-14T02:21:16.959Z,62.90
2022-09-14T02:23:44.802Z,62.92
2022-09-14T02:26:12.814Z,63.09
2022-09-14T02:28:40.495Z,63.08
2022-09-14T02:31:18.676Z,62.67
2022-09-14T02:33:55.745Z,63.12
2022-09-14T02:36:29.675Z,62.51
2022-09-14T02:39:03.402Z,63.02
2022-09-14T02:41:42.040Z,63.30
2022-09-14T02:44:17.318Z,62.77
2022-09-14T02:46:51.624Z,62.68
2022-09-14T02:49:24.015Z,63.24
2022-09-14T02:51:58.412Z,63.62
2022-09-14T02:54:31.829Z,63.52
2022-09-14T02:57:01.667Z,63.67
2022-09-14T02:59:29.816Z,63.68
2022-09-14T03:02:00.858Z,63.87
2022-09-14T03:04:29.036Z,63.93
2022-09-14T03:06:56.906Z,64.03
2022-09-14T03:09:24.554Z,64.45
2022-09-14T03:11:52.154Z,63.83
2022-09-14T03:14:19.735Z,64.22
2022-09-14T03:16:47.361Z,64.00
2022-09-14T03:19:16.558Z,64.46
2022-09-14T03:21:44.174Z,63.80
2022-09-14T03:24:12.137Z,64.03
2022-09-14T03:26:40.087Z,65.10
2022-09-14T03:29:07.926Z,66.10
2022-09-14T03:31:35.767Z,66.10
2022-09-14T03:34:03.917Z,66.77
2022-09-14T03:36:33.257Z,66.70
2022-09-14T03:39:02.703Z,67.35
2022-09-14T03:41:30.895Z,67.81
2022-09-14T03:43:58.533Z,68.34
2022-09-14T03:46:26.959Z,69.14
2022-09-14T03:48:55.838Z,68.59
2022-09-14T03:51:23.811Z,69.89
2022-09-14T03:53:53.104Z,69.23
2022-09-14T03:56:23.114Z,69.25
2022-09-14T03:58:51.346Z,69.62
2022-09-14T04:01:21.387Z,70.05
2022-09-14T04:03:50.254Z,70.72
2022-09-14T04:06:19.176Z,70.42
2022-09-14T04:08:48.355Z,70.68
2022-09-14T04:11:19.982Z,70.62
2022-09-14T04:13:48.531Z,70.95
2022-09-14T04:16:17.893Z,70.58
2022-09-14T04:18:45.789Z,70.61
2022-09-14T04:21:15.925Z,71.10
2022-09-14T04:24:03.451Z,70.90
2022-09-14T04:26:33.580Z,71.45
2022-09-14T04:29:01.218Z,72.14
2022-09-14T04:31:28.967Z,72.56
2022-09-14T04:33:57.635Z,72.96
2022-09-14T04:36:29.377Z,72.87
2022-09-14T04:38:58.609Z,72.98
2022-09-14T04:41:27.524Z,73.18
2022-09-14T04:43:57.719Z,73.17
2022-09-14T04:46:27.599Z,73.01
2022-09-14T04:48:55.492Z,73.88
2022-09-14T04:51:25.039Z,74.02
2022-09-14T04:53:55.069Z,73.65
2022-09-14T04:56:24.450Z,74.15
2022-09-14T04:58:54.012Z,75.19
2022-09-14T05:01:24.904Z,75.07
2022-09-14T05:03:53.231Z,74.99
2022-09-14T05:06:23.104Z,74.54
2022-09-14T05:08:52.079Z,74.68
2022-09-14T05:11:21.456Z,75.17
2022-09-14T05:13:50.410Z,75.00
2022-09-14T05:16:20.139Z,75.37
2022-09-14T05:18:50.258Z,75.43
2022-09-14T05:21:20.471Z,75.06
2022-09-14T05:23:49.359Z,74.91
2022-09-14T05:26:17.298Z,75.44
2022-09-14T05:28:44.912Z,75.56
2022-09-14T05:31:13.096Z,75.64
2022-09-14T05:33:40.948Z,75.64
2022-09-14T05:36:10.591Z,75.55
2022-09-14T05:38:40.174Z,76.50
2022-09-14T05:41:09.545Z,76.67
2022-09-14T05:43:37.216Z,77.59
2022-09-14T05:46:06.604Z,77.07
2022-09-14T05:48:35.015Z,77.78
2022-09-14T05:51:04.290Z,78.82
2022-09-14T05:53:33.333Z,79.16
2022-09-14T05:56:02.197Z,80.29
2022-09-14T05:58:30.154Z,79.93
2022-09-14T06:00:58.023Z,80.58
2022-09-14T06:03:26.104Z,80.91
2022-09-14T06:05:54.876Z,80.97
2022-09-14T06:08:23.429Z,80.21
2022-09-14T06:10:52.472Z,80.10
2022-09-14T06:13:20.118Z,80.39
2022-09-14T06:15:47.749Z,80.63
2022-09-14T06:18:15.434Z,80.36
2022-09-14T06:20:51.523Z,80.22
2022-09-14T06:23:19.562Z,80.43
2022-09-14T06:25:47.147Z,80.59
2022-09-14T06:28:16.163Z,81.28
2022-09-14T06:30:45.032Z,81.35
2022-09-14T06:33:12.697Z,81.22
2022-09-14T06:35:42.017Z,81.52
2022-09-14T06:38:09.987Z,82.09
2022-09-14T06:40:37.632Z,81.90
2022-09-14T06:43:05.236Z,82.40
2022-09-14T06:45:34.255Z,82.90
2022-09-14T06:48:02.102Z,83.06
2022-09-14T06:50:29.800Z,83.15
2022-09-14T06:52:57.435Z,82.54
2022-09-14T06:55:25.085Z,83.06
2022-09-14T06:57:52.756Z,82.91
2022-09-14T07:00:20.539Z,83.04
2022-09-14T07:02:52.463Z,82.37
2022-09-14T07:05:23.128Z,83.33
2022-09-14T07:07:53.360Z,83.49
2022-09-14T07:10:21.030Z,84.15
2022-09-14T07:12:48.718Z,83.93
2022-09-14T07:15:16.446Z,84.60
2022-09-14T07:17:47.147Z,83.03
2022-09-14T07:20:16.417Z,83.81
2022-09-14T07:22:45.099Z,84.05
2022-09-14T07:25:13.013Z,83.56
2022-09-14T07:27:40.690Z,83.77
2022-09-14T07:30:09.647Z,83.83
2022-09-14T07:32:37.281Z,83.47
2022-09-14T07:35:05.298Z,83.47
2022-09-14T07:37:34.368Z,83.92
2022-09-14T07:40:02.349Z,83.70
2022-09-14T07:42:30.049Z,83.46
2022-09-14T07:44:57.753Z,82.44
2022-09-14T07:47:25.577Z,82.55
2022-09-14T07:49:53.198Z,83.01
2022-09-14T07:52:23.225Z,83.00
2022-09-14T07:54:52.601Z,82.73
2022-09-14T07:57:33.964Z,83.56
2022-09-14T08:00:10.014Z,83.17
2022-09-14T08:02:37.729Z,83.24
2022-09-14T08:05:05.943Z,83.58
2022-09-14T08:07:33.805Z,82.52
2022-09-14T08:10:03.136Z,83.28
2022-09-14T08:12:31.116Z,83.14
2022-09-14T08:14:58.768Z,83.20
2022-09-14T08:17:26.523Z,83.13
2022-09-14T08:19:55.637Z,83.07
2022-09-14T08:22:23.307Z,82.98
2022-09-14T08:24:51.006Z,82.91
2022-09-14T08:27:20.034Z,82.39
2022-09-14T08:29:47.638Z,82.02
2022-09-14T08:32:15.267Z,82.91
2022-09-14T08:34:42.903Z,83.59
2022-09-14T08:37:10.971Z,83.47
2022-09-14T08:39:38.625Z,84.00
2022-09-14T08:42:07.032Z,82.74
2022-09-14T08:44:41.639Z,83.60
2022-09-14T08:47:13.654Z,83.82
2022-09-14T08:49:47.608Z,84.13
2022-09-14T08:52:23.270Z,84.12
2022-09-14T08:54:55.035Z,82.68
2022-09-14T08:57:29.606Z,82.02
2022-09-14T09:00:08.015Z,83.00
2022-09-14T09:02:51.010Z,83.25
2022-09-14T09:05:31.362Z,82.38
2022-09-14T09:08:06.193Z,83.09
2022-09-14T09:10:36.360Z,83.46
2022-09-14T09:13:06.678Z,83.54
2022-09-14T09:15:38.174Z,82.66
2022-09-14T09:18:09.793Z,82.96
2022-09-14T09:20:41.526Z,82.70
2022-09-14T09:23:14.269Z,82.98
2022-09-14T09:26:04.706Z,83.08
2022-09-14T09:28:33.645Z,83.07
2022-09-14T09:31:10.185Z,83.50
2022-09-14T09:33:40.482Z,83.91
2022-09-14T09:36:13.415Z,84.12
2022-09-14T09:38:41.444Z,84.12
2022-09-14T09:41:15.107Z,82.99
2022-09-14T09:43:59.879Z,83.09
2022-09-14T09:46:31.879Z,83.43
2022-09-14T09:49:00.370Z,82.22
2022-09-14T09:51:31.454Z,83.05
2022-09-14T09:54:08.627Z,82.63
2022-09-14T09:56:39.458Z,82.56
2022-09-14T09:59:23.345Z,83.17
2022-09-14T10:01:55.549Z,82.74
2022-09-14T10:04:27.870Z,82.68
2022-09-14T10:06:57.686Z,84.22
2022-09-14T10:09:28.161Z,84.15
2022-09-14T10:12:01.478Z,83.96
2022-09-14T10:14:32.233Z,84.28
2022-09-14T10:17:16.646Z,84.19
2022-09-14T10:19:48.761Z,84.11
2022-09-14T10:22:26.761Z,85.20
2022-09-14T10:24:57.507Z,85.71
2022-09-14T10:27:39.630Z,85.36
2022-09-14T10:30:13.247Z,84.54
2022-09-14T10:32:45.817Z,84.76
2022-09-14T10:35:15.309Z,83.72
2022-09-14T10:37:56.442Z,83.73
2022-09-14T10:40:31.721Z,82.87
2022-09-14T10:43:10.131Z,82.71
2022-09-14T10:45:42.331Z,82.32
2022-09-14T10:48:43.681Z,82.39
2022-09-14T10:51:36.120Z,83.17
2022-09-14T10:54:13.865Z,83.25
2022-09-14T10:56:57.038Z,83.57
2022-09-14T10:59:32.758Z,82.14
2022-09-14T11:02:37.892Z,82.57
2022-09-14T11:05:13.107Z,83.88
2022-09-14T11:07:53.444Z,84.30
2022-09-14T11:10:29.332Z,83.29
2022-09-14T11:13:19.408Z,82.86
2022-09-14T11:15:57.959Z,82.05
2022-09-14T11:18:34.564Z,82.98
2022-09-14T11:21:10.175Z,83.41
2022-09-14T11:23:48.920Z,82.83
2022-09-14T11:26:23.743Z,84.40
2022-09-14T11:28:55.078Z,83.25
2022-09-14T11:31:27.715Z,83.25
2022-09-14T11:34:00.077Z,84.05
2022-09-14T11:36:34.051Z,83.98
2022-09-14T11:39:07.210Z,83.86
2022-09-14T11:41:40.346Z,83.99
2022-09-14T11:44:14.411Z,83.09
2022-09-14T11:46:45.153Z,82.99
2022-09-14T11:49:19.732Z,84.10
2022-09-14T11:51:53.525Z,83.61
2022-09-14T11:54:23.542Z,81.61
2022-09-14T11:56:53.702Z,81.26
2022-09-14T11:59:48.361Z,80.67
2022-09-14T12:02:52.454Z,79.92
2022-09-14T12:05:33.163Z,79.50
2022-09-14T12:08:21.265Z,79.45
2022-09-14T12:11:28.593Z,78.96
2022-09-14T12:14:16.229Z,80.34
2022-09-14T12:17:39.909Z,80.10
2022-09-14T12:20:45.085Z,79.41
2022-09-14T12:23:24.648Z,79.13
2022-09-14T12:26:03.637Z,80.13
2022-09-14T12:28:43.463Z,80.07
2022-09-14T12:31:15.927Z,79.15
2022-09-14T12:34:15.857Z,79.23
2022-09-14T12:37:20.210Z,80.06
2022-09-14T12:40:27.843Z,80.82
2022-09-14T12:42:56.851Z,80.76
2022-09-14T12:45:51.249Z,81.19
2022-09-14T12:48:58.594Z,81.29
2022-09-14T12:51:37.691Z,81.83
2022-09-14T12:54:18.265Z,81.13
2022-09-14T12:56:56.372Z,81.64
2022-09-14T12:59:32.472Z,82.45
2022-09-14T13:02:14.836Z,80.26
2022-09-14T13:04:45.555Z,79.05
2022-09-14T13:07:15.912Z,79.73
2022-09-14T13:09:49.110Z,80.33
2022-09-14T13:12:24.842Z,78.89
2022-09-14T13:14:56.538Z,79.42
2022-09-14T13:17:24.199Z,80.26
2022-09-14T13:19:56.467Z,79.62
2022-09-14T13:22:26.009Z,79.03
2022-09-14T13:24:56.228Z,79.61
2022-09-14T13:27:27.021Z,79.06
2022-09-14T13:30:05.189Z,79.18
2022-09-14T13:32:35.835Z,78.99
2022-09-14T13:35:05.982Z,77.07
2022-09-14T13:37:33.720Z,78.83
2022-09-14T13:40:01.547Z,78.55
2022-09-14T13:42:29.395Z,79.06
2022-09-14T13:44:57.236Z,79.02
2022-09-14T13:47:26.934Z,78.35
2022-09-14T13:49:55.870Z,78.00
2022-09-14T13:52:57.463Z,79.25
2022-09-14T13:55:27.646Z,79.59
2022-09-14T13:58:17.245Z,80.61
2022-09-14T14:00:58.002Z,79.74
2022-09-14T14:03:30.749Z,79.73
2022-09-14T14:05:59.209Z,80.09
2022-09-14T14:08:34.118Z,80.15
2022-09-14T14:11:05.154Z,80.00
2022-09-14T14:13:35.456Z,80.45
2022-09-14T14:16:18.168Z,80.61
2022-09-14T14:18:53.262Z,80.42
2022-09-14T14:21:30.050Z,79.56
2022-09-14T14:24:28.418Z,80.01
2022-09-14T14:26:57.879Z,80.88
2022-09-14T14:29:26.808Z,79.58
2022-09-14T14:31:56.823Z,80.14
2022-09-14T14:34:28.794Z,80.99
2022-09-14T14:36:57.589Z,81.66
2022-09-14T14:39:26.482Z,81.48
2022-09-14T14:41:54.527Z,81.57
2022-09-14T14:44:24.212Z,81.91
2022-09-14T14:46:52.251Z,80.64
2022-09-14T14:49:20.889Z,81.40
2022-09-14T14:51:49.955Z,81.67
2022-09-14T14:54:18.725Z,80.53
2022-09-14T14:56:47.843Z,82.14
2022-09-14T14:59:28.518Z,81.71
2022-09-14T15:01:57.100Z,82.54
2022-09-14T15:04:25.316Z,82.53
2022-09-14T15:06:54.496Z,80.73
2022-09-14T15:09:25.432Z,80.21
2022-09-14T15:11:54.626Z,79.27
2022-09-14T15:14:26.969Z,80.11
2022-09-14T15:16:59.740Z,80.92
2022-09-14T15:19:28.105Z,81.50
2022-09-14T15:22:00.963Z,81.47
2022-09-14T15:24:29.941Z,81.11
2022-09-14T15:26:57.827Z,82.08
2022-09-14T15:29:25.662Z,82.24
2022-09-14T15:31:53.409Z,81.72
2022-09-14T15:34:21.300Z,81.14
2022-09-14T15:36:51.239Z,80.90
2022-09-14T15:39:21.954Z,79.44
2022-09-14T15:41:49.993Z,79.95
2022-09-14T15:44:18.014Z,80.15
2022-09-14T15:46:46.860Z,80.29
2022-09-14T15:49:17.774Z,81.22
2022-09-14T15:51:47.750Z,80.59
2022-09-14T15:54:16.002Z,81.31
2022-09-14T15:56:49.676Z,81.68
2022-09-14T15:59:21.988Z,81.65
2022-09-14T16:01:49.977Z,81.86
2022-09-14T16:04:18.040Z,82.60
2022-09-14T16:06:46.130Z,82.60
2022-09-14T16:09:15.917Z,81.96
2022-09-14T16:11:45.318Z,82.44
2022-09-14T16:14:12.999Z,82.01
2022-09-14T16:16:41.409Z,81.91
2022-09-14T16:19:11.501Z,83.07
2022-09-14T16:21:39.782Z,83.03
2022-09-14T16:24:11.301Z,82.84
2022-09-14T16:26:39.705Z,83.43
2022-09-14T16:29:11.616Z,83.57
2022-09-14T16:31:41.506Z,84.19
2022-09-14T16:34:12.541Z,84.35
2022-09-14T16:36:41.395Z,84.28
2022-09-14T16:39:12.146Z,84.59
2022-09-14T16:41:41.746Z,83.88
2022-09-14T16:44:13.924Z,84.04
2022-09-14T16:46:41.722Z,83.85
2022-09-14T16:49:09.529Z,84.37
2022-09-14T16:51:37.756Z,83.94
2022-09-14T16:54:05.762Z,84.61
2022-09-14T16:56:35.595Z,84.30
2022-09-14T16:59:04.356Z,84.54
2022-09-14T17:01:35.138Z,84.38
2022-09-14T17:04:08.186Z,84.35
2022-09-14T17:06:37.775Z,84.81
2022-09-14T17:09:08.928Z,84.65
2022-09-14T17:11:38.004Z,84.58
2022-09-14T17:14:06.685Z,85.16
2022-09-14T17:16:35.993Z,85.06
2022-09-14T17:19:05.660Z,85.38
2022-09-14T17:21:35.281Z,84.98
2022-09-14T17:24:04.373Z,84.90
2022-09-14T17:26:32.889Z,84.85
2022-09-14T17:29:01.933Z,85.22
2022-09-14T17:31:31.909Z,85.04
2022-09-14T17:34:02.618Z,85.21
2022-09-14T17:36:31.098Z,85.26
2022-09-14T17:39:01.869Z,85.55
2022-09-14T17:41:31.641Z,85.11
2022-09-14T17:44:02.147Z,85.17
2022-09-14T17:46:30.662Z,85.00
2022-09-14T17:49:00.452Z,84.66
2022-09-14T17:51:30.803Z,85.29
2022-09-14T17:53:59.833Z,85.11
2022-09-14T17:56:29.182Z,84.96
2022-09-14T17:59:02.969Z,84.51
2022-09-14T18:01:31.939Z,85.19
2022-09-14T18:04:02.930Z,85.22
2022-09-14T18:06:35.614Z,84.97
2022-09-14T18:09:05.931Z,84.94
2022-09-14T18:11:34.466Z,85.20
2022-09-14T18:14:03.643Z,85.73
2022-09-14T18:16:31.807Z,85.75
2022-09-14T18:18:59.890Z,86.14
2022-09-14T18:21:28.138Z,85.94
2022-09-14T18:23:57.280Z,86.22
2022-09-14T18:26:26.241Z,86.00
2022-09-14T18:28:55.977Z,86.28
2022-09-14T18:31:24.325Z,86.58
2022-09-14T18:33:53.676Z,86.43
2022-09-14T18:36:22.250Z,86.61
2022-09-14T18:38:51.476Z,86.59
2022-09-14T18:41:21.604Z,86.87
2022-09-14T18:43:51.377Z,86.87
2022-09-14T18:46:22.398Z,86.96
2022-09-14T18:48:52.886Z,87.19
2022-09-14T18:51:20.783Z,86.79
2022-09-14T18:53:48.670Z,87.13
2022-09-14T18:56:17.953Z,87.25
2022-09-14T18:58:48.810Z,86.98
2022-09-14T19:01:16.585Z,87.49
2022-09-14T19:03:45.076Z,87.44
2022-09-14T19:06:15.264Z,87.32
2022-09-14T19:08:43.534Z,87.54
2022-09-14T19:11:13.106Z,87.73
2022-09-14T19:13:41.302Z,88.12
2022-09-14T19:16:12.387Z,87.91
2022-09-14T19:18:40.542Z,88.02
2022-09-14T19:21:14.342Z,87.94
2022-09-14T19:23:42.958Z,88.23
2022-09-14T19:26:15.059Z,88.45
2022-09-14T19:28:43.312Z,88.48
2022-09-14T19:31:22.849Z,88.25
2022-09-14T19:33:51.196Z,88.57
2022-09-14T19:36:20.930Z,88.79
2022-09-14T19:38:49.739Z,88.81
2022-09-14T19:41:17.994Z,88.92
2022-09-14T19:43:46.227Z,88.85
2022-09-14T19:46:17.181Z,88.92
2022-09-14T19:48:45.657Z,88.92
2022-09-14T19:51:15.423Z,88.96
2022-09-14T19:53:44.090Z,89.17
2022-09-14T19:56:14.063Z,89.25
2022-09-14T19:58:43.807Z,89.05
2022-09-14T20:01:12.265Z,88.92
2022-09-14T20:03:41.640Z,89.21
2022-09-14T20:06:11.352Z,89.28
2022-09-14T20:08:39.472Z,89.12
2022-09-14T20:11:08.394Z,88.82
2022-09-14T20:13:36.665Z,89.11
2022-09-14T20:16:12.523Z,88.65
2022-09-14T20:18:42.414Z,89.08
2022-09-14T20:21:11.806Z,89.20
2022-09-14T20:24:11.366Z,89.21
2022-09-14T20:26:35.550Z,89.19
2022-09-14T20:29:03.491Z,89.04
2022-09-14T20:31:32.245Z,89.24
2022-09-14T20:34:01.974Z,89.22
2022-09-14T20:36:31.115Z,89.55
2022-09-14T20:39:00.206Z,89.43
2022-09-14T20:41:30.187Z,89.34
2022-09-14T20:43:58.238Z,89.55
2022-09-14T20:46:27.714Z,89.23
2022-09-14T20:48:55.948Z,89.32
2022-09-14T20:51:26.558Z,89.13
2022-09-14T20:53:56.105Z,89.58
2022-09-14T20:56:26.262Z,90.01
2022-09-14T20:58:55.615Z,89.72
2022-09-14T21:01:25.498Z,89.66
2022-09-14T21:03:53.541Z,89.72
2022-09-14T21:06:26.347Z,89.45
2022-09-14T21:08:54.221Z,89.67
2022-09-14T21:11:23.916Z,89.75
2022-09-14T21:13:53.102Z,89.59
2022-09-14T21:16:24.598Z,89.61
2022-09-14T21:18:55.427Z,89.66
2022-09-14T21:21:23.591Z,89.59
2022-09-14T21:23:54.061Z,89.95
2022-09-14T21:26:21.734Z,89.72
2022-09-14T21:28:49.532Z,89.88
2022-09-14T21:31:19.287Z,89.73
2022-09-14T21:33:48.975Z,89.63
2022-09-14T21:36:18.718Z,89.96
2022-09-14T21:38:50.522Z,90.09
2022-09-14T21:41:21.084Z,89.81
2022-09-14T21:43:49.048Z,90.10
2022-09-14T21:46:17.469Z,90.02
2022-09-14T21:48:45.672Z,90.18
2022-09-14T21:51:18.070Z,90.42
2022-09-14T21:53:46.464Z,90.26
2022-09-14T21:56:14.636Z,90.50
2022-09-14T21:58:44.116Z,90.59
2022-09-14T22:01:12.194Z,90.79
2022-09-14T22:03:40.330Z,90.47
2022-09-14T22:06:11.138Z,90.52
2022-09-14T22:08:38.890Z,90.76
2022-09-14T22:11:07.895Z,90.59
2022-09-14T22:13:35.654Z,90.32
2022-09-14T22:16:09.028Z,90.54
2022-09-14T22:18:37.808Z,90.74
2022-09-14T22:21:06.276Z,90.67
2022-09-14T22:23:35.002Z,90.49
2022-09-14T22:26:07.238Z,90.65
2022-09-14T22:28:35.019Z,90.46
2022-09-14T22:31:03.054Z,90.57
2022-09-14T22:33:32.216Z,90.59
2022-09-14T22:36:02.039Z,90.66
2022-09-14T22:38:32.860Z,90.69
2022-09-14T22:41:02.366Z,90.91
2022-09-14T22:43:30.770Z,90.64
2022-09-14T22:45:59.150Z,90.71
2022-09-14T22:48:27.458Z,90.92
2022-09-14T22:50:58.072Z,91.21
2022-09-14T22:53:26.919Z,91.22
2022-09-14T22:55:55.004Z,91.14
2022-09-14T22:58:25.101Z,91.48
2022-09-14T23:00:53.492Z,91.36
2022-09-14T23:03:21.571Z,91.42
2022-09-14T23:05:50.833Z,91.51
2022-09-14T23:08:20.579Z,91.80
2022-09-14T23:10:48.800Z,91.97
2022-09-14T23:13:17.127Z,91.71
2022-09-14T23:15:44.958Z,91.81
2022-09-14T23:18:13.460Z,91.80
2022-09-14T23:20:42.887Z,91.76
2022-09-14T23:23:10.985Z,92.18
2022-09-14T23:25:41.618Z,92.32
2022-09-14T23:28:12.588Z,92.17
2022-09-14T23:30:40.491Z,92.53
2022-09-14T23:33:08.201Z,92.19
2022-09-14T23:35:37.897Z,92.66
2022-09-14T23:38:05.727Z,93.03
2022-09-14T23:40:33.473Z,92.83
2022-09-14T23:43:02.587Z,93.00
2022-09-14T23:45:30.232Z,92.88
2022-09-14T23:47:57.982Z,92.80
2022-09-14T23:50:25.734Z,92.99
2022-09-14T23:52:57.314Z,93.04
2022-09-14T23:55:25.093Z,92.82
2022-09-14T23:57:52.779Z,92.79
